Ordbend, California
Current Conditions -  °F | °C
As of 8:35 PM on Friday 24 Oct 2014 (Local Time) from KCIC Reporting Station
Clear Clear  
Wind Chill: 66°   Ceiling: Unl
Heat Index: 66°   Visibility: 10mi
Dew Point: 46°   Wind: 7mph
Humidity: 49%   Direction: 140°SE
Pressure: 29.84"   Gusts: NA
Location:  39.6048°N, 122.032°W
Report Text: KCIC 250335Z AUTO 14006KT 10SM CLR 19/08 A2984 RMK AO1
Loading
Personal Weather Stations






























Interactive Weather Map
Tropical Storm Tracking
New forecast layout! Learn more

10-Day Weather Forecast

Advertisements
Track Severe Weather on mobile